Time;durP1;ratioP1;P1;durP2;ratioP2;P2;SDS_P1;SDS_P2;PMS_P1;PMS_P2;Temp;Humidity;BMP_temperature;BMP_pressure;BME280_temperature;BME280_humidity;BME280_pressure;Samples;Min_cycle;Max_cycle;Signal;HPM_P1;HPM_P2
2022/04/20 00:00:40;;;;;;;4.90;3.03;;;8.10;99.90;;;;;;5071286;28;20044;-63
2022/04/20 00:03:06;;;;;;;5.40;2.58;;;8.10;99.90;;;;;;5070887;28;20036;-64
2022/04/20 00:05:33;;;;;;;6.47;3.13;;;8.10;99.90;;;;;;5072466;28;20060;-64
2022/04/20 00:08:00;;;;;;;4.68;2.83;;;8.10;99.90;;;;;;5071917;28;20102;-62
2022/04/20 00:10:27;;;;;;;4.28;2.97;;;8.00;99.90;;;;;;5071410;28;20048;-63
2022/04/20 00:12:53;;;;;;;6.20;3.28;;;8.00;99.90;;;;;;5054457;28;20394;-63
2022/04/20 00:15:19;;;;;;;5.20;3.03;;;7.90;99.90;;;;;;5072395;28;20044;-64
2022/04/20 00:17:45;;;;;;;6.15;3.55;;;7.90;99.90;;;;;;5071998;28;20102;-68
2022/04/20 00:20:11;;;;;;;5.45;3.67;;;7.90;99.90;;;;;;5072209;28;20478;-63
2022/04/20 00:22:36;;;;;;;6.20;2.90;;;7.80;99.90;;;;;;5070796;28;20376;-64
2022/04/20 00:25:03;;;;;;;6.93;3.17;;;7.80;99.90;;;;;;5071550;28;20465;-63
2022/04/20 00:27:35;;;;;;;4.22;2.65;;;7.80;99.90;;;;;;5070813;28;20102;-63
2022/04/20 00:30:09;;;;;;;6.72;3.10;;;7.80;99.90;;;;;;5070431;28;20049;-64
2022/04/20 00:32:35;;;;;;;5.27;3.20;;;7.70;99.90;;;;;;5072304;28;20102;-64
2022/04/20 00:35:01;;;;;;;5.10;3.05;;;7.70;99.90;;;;;;5071438;28;20283;-63
2022/04/20 00:37:28;;;;;;;7.55;3.40;;;7.70;99.90;;;;;;5071423;28;20565;-63
2022/04/20 00:39:53;;;;;;;5.30;3.10;;;7.60;99.90;;;;;;5071500;28;20135;-64
2022/04/20 00:42:22;;;;;;;5.88;3.60;;;7.60;99.90;;;;;;5071691;28;20131;-64
2022/04/20 00:44:49;;;;;;;5.97;3.53;;;7.50;99.90;;;;;;5037483;28;20045;-70
2022/04/20 00:47:16;;;;;;;7.93;3.95;;;7.50;99.90;;;;;;5071480;28;20044;-63
2022/04/20 00:49:43;;;;;;;6.15;4.20;;;7.50;99.90;;;;;;5070645;28;20052;-63
2022/04/20 00:52:08;;;;;;;9.43;4.38;;;7.50;99.90;;;;;;5071333;28;20040;-64
2022/04/20 00:54:34;;;;;;;6.82;4.13;;;7.40;99.90;;;;;;5054066;28;20051;-64
2022/04/20 00:57:00;;;;;;;6.88;4.38;;;7.40;99.90;;;;;;5070126;28;20106;-64
2022/04/20 00:59:28;;;;;;;6.65;4.10;;;7.40;99.90;;;;;;5071462;28;20051;-63
2022/04/20 01:01:55;;;;;;;7.43;4.53;;;7.40;99.90;;;;;;5071031;28;20045;-63
2022/04/20 01:04:21;;;;;;;5.50;3.50;;;7.40;99.90;;;;;;5070261;28;20055;-64
2022/04/20 01:06:49;;;;;;;8.13;4.00;;;7.40;99.90;;;;;;5071328;28;20049;-63
2022/04/20 01:09:15;;;;;;;7.35;4.03;;;7.40;99.90;;;;;;5071062;28;20048;-63
2022/04/20 01:11:41;;;;;;;7.00;4.15;;;7.40;99.90;;;;;;5071371;28;20051;-62
2022/04/20 01:14:08;;;;;;;6.07;3.42;;;7.40;99.90;;;;;;5069579;28;20127;-63
2022/04/20 01:16:33;;;;;;;5.38;3.63;;;7.40;99.90;;;;;;5070257;28;20052;-62
2022/04/20 01:19:01;;;;;;;7.63;4.07;;;7.40;99.90;;;;;;5070833;28;20043;-63
2022/04/20 01:21:27;;;;;;;5.93;3.55;;;7.40;99.90;;;;;;5070047;28;20048;-62
2022/04/20 01:23:53;;;;;;;7.28;4.10;;;7.40;99.90;;;;;;5069800;28;20041;-68
2022/04/20 01:26:19;;;;;;;5.88;3.70;;;7.40;99.90;;;;;;5070114;28;20097;-64
2022/04/20 01:28:46;;;;;;;5.45;3.60;;;7.40;99.90;;;;;;5071240;28;20160;-62
2022/04/20 01:31:17;;;;;;;6.45;3.50;;;7.40;99.90;;;;;;5069191;28;20052;-64
2022/04/20 01:33:44;;;;;;;5.47;3.33;;;7.50;99.90;;;;;;5071269;28;20178;-63
2022/04/20 01:36:11;;;;;;;4.90;3.30;;;7.40;99.90;;;;;;5070750;28;20393;-63
2022/04/20 01:38:38;;;;;;;5.70;3.55;;;7.40;99.90;;;;;;5069396;28;20048;-64
2022/04/20 01:41:04;;;;;;;4.65;3.20;;;7.40;99.90;;;;;;5070823;28;20390;-64
2022/04/20 01:43:31;;;;;;;8.57;4.10;;;7.40;99.90;;;;;;5069811;28;20080;-64
2022/04/20 01:45:56;;;;;;;6.20;3.50;;;7.40;99.90;;;;;;5069433;28;20133;-67
2022/04/20 01:48:22;;;;;;;7.43;3.95;;;7.40;99.90;;;;;;5069540;28;20617;-63
2022/04/20 01:53:32;;;;;;;6.07;3.58;;;7.30;99.90;;;;;;5058413;28;20497;-62
2022/04/20 01:56:00;;;;;;;5.68;3.70;;;7.30;99.90;;;;;;5073200;28;20044;-63
2022/04/20 01:58:26;;;;;;;5.03;3.33;;;7.30;99.90;;;;;;5074887;28;20055;-63
2022/04/20 02:00:52;;;;;;;5.65;3.85;;;7.30;99.90;;;;;;5074958;28;20132;-63
2022/04/20 02:03:18;;;;;;;5.50;3.65;;;7.30;99.90;;;;;;5073206;28;20128;-63
2022/04/20 02:05:44;;;;;;;6.97;4.13;;;7.20;99.90;;;;;;5073811;28;20088;-64
2022/04/20 02:08:09;;;;;;;5.22;3.30;;;7.20;99.90;;;;;;5074297;28;20044;-64
2022/04/20 02:10:35;;;;;;;4.72;3.45;;;7.20;99.90;;;;;;5074582;28;20056;-63
2022/04/20 02:13:01;;;;;;;6.55;3.60;;;7.10;99.90;;;;;;5073270;28;20044;-63
2022/04/20 02:15:28;;;;;;;6.70;3.92;;;7.20;99.90;;;;;;5073228;28;20052;-63
2022/04/20 02:17:54;;;;;;;6.60;3.75;;;7.10;99.90;;;;;;5073272;28;20049;-63
2022/04/20 02:20:20;;;;;;;5.07;3.60;;;7.10;99.90;;;;;;5072353;28;20649;-63
2022/04/20 02:22:46;;;;;;;7.60;3.85;;;7.10;99.90;;;;;;5074347;28;20041;-63
2022/04/20 02:25:12;;;;;;;7.85;4.03;;;7.10;99.90;;;;;;5072907;28;20059;-64
2022/04/20 02:27:38;;;;;;;7.68;3.88;;;7.00;99.90;;;;;;5056860;28;20670;-64
2022/04/20 02:30:05;;;;;;;6.80;3.90;;;7.00;99.90;;;;;;5073741;28;20106;-63
2022/04/20 02:32:30;;;;;;;7.13;3.80;;;7.10;99.90;;;;;;5072875;28;20351;-63
2022/04/20 02:34:56;;;;;;;5.32;3.83;;;7.10;99.90;;;;;;5073150;28;20040;-63
2022/04/20 02:37:22;;;;;;;6.10;3.90;;;7.10;99.90;;;;;;5072944;28;20343;-63
2022/04/20 02:39:49;;;;;;;6.80;3.70;;;7.10;99.90;;;;;;5073686;28;20502;-63
2022/04/20 02:42:16;;;;;;;6.80;3.78;;;7.10;99.90;;;;;;5072222;28;20469;-63
2022/04/20 02:44:43;;;;;;;7.00;4.07;;;7.10;99.90;;;;;;5072687;28;20251;-63
2022/04/20 02:47:09;;;;;;;6.35;4.13;;;7.10;99.90;;;;;;5073454;28;20185;-64
2022/04/20 02:49:35;;;;;;;6.75;3.90;;;7.10;99.90;;;;;;5072828;28;20048;-63
2022/04/20 02:52:01;;;;;;;6.85;3.88;;;7.00;99.90;;;;;;5072760;28;20123;-64
2022/04/20 02:54:27;;;;;;;6.07;3.70;;;7.10;99.90;;;;;;5055582;28;20053;-64
2022/04/20 02:56:53;;;;;;;8.13;3.67;;;7.00;99.90;;;;;;5039330;28;20055;-65
2022/04/20 02:59:19;;;;;;;5.35;3.80;;;7.00;99.90;;;;;;5073505;28;20131;-64
2022/04/20 03:01:45;;;;;;;6.55;3.70;;;7.00;99.90;;;;;;5056059;28;20512;-64
2022/04/20 03:04:11;;;;;;;8.35;4.38;;;6.90;99.90;;;;;;5072159;28;20044;-64
2022/04/20 03:06:37;;;;;;;6.07;3.65;;;7.00;99.90;;;;;;5073734;28;20114;-62
2022/04/20 03:09:03;;;;;;;6.97;3.72;;;6.80;99.90;;;;;;5074018;28;20044;-63
2022/04/20 03:11:29;;;;;;;9.20;4.05;;;6.80;99.90;;;;;;5071871;28;20040;-63
2022/04/20 03:13:56;;;;;;;7.47;3.83;;;6.80;99.90;;;;;;5073399;28;20444;-63
2022/04/20 03:16:23;;;;;;;6.30;4.32;;;6.70;99.90;;;;;;5072788;28;20056;-64
2022/04/20 03:18:48;;;;;;;5.53;3.83;;;6.70;99.90;;;;;;5073321;28;20059;-63
2022/04/20 03:21:14;;;;;;;6.00;3.83;;;6.70;99.90;;;;;;5071832;28;20131;-63
2022/04/20 03:23:40;;;;;;;6.90;4.13;;;6.70;99.90;;;;;;5071982;28;20033;-63
2022/04/20 03:26:06;;;;;;;6.68;4.20;;;6.60;99.90;;;;;;5071879;28;20044;-67
2022/04/20 03:28:32;;;;;;;6.45;4.22;;;6.60;99.90;;;;;;5071534;28;20060;-62
2022/04/20 03:30:59;;;;;;;7.25;4.60;;;6.60;99.90;;;;;;5072168;28;20127;-63
2022/04/20 03:33:25;;;;;;;7.40;4.65;;;6.60;99.90;;;;;;5071417;28;20498;-62
2022/04/20 03:35:51;;;;;;;6.40;4.10;;;6.60;99.90;;;;;;5072988;28;20083;-63
2022/04/20 03:38:17;;;;;;;7.70;4.53;;;6.50;99.90;;;;;;5070952;28;20140;-63
2022/04/20 03:40:43;;;;;;;6.07;4.13;;;6.50;99.90;;;;;;5071531;28;20049;-64
2022/04/20 03:43:08;;;;;;;7.25;4.18;;;6.50;99.90;;;;;;5072413;28;20427;-68
2022/04/20 03:45:34;;;;;;;6.95;4.60;;;6.50;99.90;;;;;;5054947;28;20048;-64
2022/04/20 03:48:00;;;;;;;9.48;4.35;;;6.40;99.90;;;;;;5071505;28;20047;-62
2022/04/20 03:50:26;;;;;;;8.23;4.53;;;6.40;99.90;;;;;;5071137;28;20474;-63
2022/04/20 03:52:52;;;;;;;7.72;4.60;;;6.40;99.90;;;;;;5072625;28;20044;-62
2022/04/20 03:55:18;;;;;;;8.15;4.60;;;6.30;99.90;;;;;;5072070;28;20045;-63
2022/04/20 03:57:43;;;;;;;6.45;4.20;;;6.30;99.90;;;;;;5072473;28;20045;-63
2022/04/20 04:00:10;;;;;;;6.57;4.45;;;6.20;99.90;;;;;;5054816;28;20048;-63
2022/04/20 04:02:35;;;;;;;7.93;4.75;;;6.20;99.90;;;;;;5054208;28;20072;-66
2022/04/20 04:05:01;;;;;;;6.65;4.60;;;6.20;99.90;;;;;;5071148;28;20053;-64
2022/04/20 04:07:27;;;;;;;6.18;4.20;;;6.10;99.90;;;;;;5070989;28;20048;-64
2022/04/20 04:09:53;;;;;;;7.72;4.80;;;6.10;99.90;;;;;;5072356;28;20083;-62
2022/04/20 04:12:23;;;;;;;7.03;4.60;;;6.00;99.90;;;;;;5071708;28;20127;-64
2022/04/20 04:14:49;;;;;;;7.50;4.35;;;6.20;99.90;;;;;;5071984;28;20044;-64
2022/04/20 04:17:15;;;;;;;6.78;4.47;;;5.90;99.90;;;;;;5071734;28;20049;-64
2022/04/20 04:19:41;;;;;;;6.90;4.75;;;6.10;99.90;;;;;;5072413;28;20428;-65
2022/04/20 04:22:07;;;;;;;7.03;4.65;;;5.90;99.90;;;;;;5054194;28;20056;-63
2022/04/20 04:24:35;;;;;;;6.43;4.35;;;5.90;99.90;;;;;;5053504;28;20490;-63
2022/04/20 04:27:03;;;;;;;6.55;4.68;;;5.90;99.90;;;;;;5053758;28;20116;-64
2022/04/20 04:29:29;;;;;;;8.18;4.47;;;5.90;99.90;;;;;;5071317;28;20115;-64
2022/04/20 04:31:55;;;;;;;6.97;4.60;;;6.30;99.90;;;;;;5070530;28;20197;-64
2022/04/20 04:34:21;;;;;;;6.90;4.78;;;6.00;99.90;;;;;;5069972;28;20044;-63
2022/04/20 04:36:47;;;;;;;6.75;4.32;;;6.00;99.90;;;;;;5071596;28;20048;-64
2022/04/20 04:39:14;;;;;;;6.97;4.20;;;6.00;99.90;;;;;;5053213;28;20056;-63
2022/04/20 04:41:42;;;;;;;6.32;4.57;;;6.20;99.90;;;;;;5071184;28;20087;-63
2022/04/20 04:44:08;;;;;;;7.35;4.63;;;6.00;99.90;;;;;;5070321;28;20058;-64
2022/04/20 04:49:18;;;;;;;6.97;4.15;;;6.10;99.90;;;;;;5055916;28;20082;-67
2022/04/20 04:51:43;;;;;;;8.88;4.65;;;6.10;99.90;;;;;;5070181;28;20160;-64
2022/04/20 04:54:09;;;;;;;6.85;4.43;;;6.10;99.90;;;;;;5071297;28;20055;-64
2022/04/20 04:56:35;;;;;;;5.22;3.88;;;6.10;99.90;;;;;;5071181;28;20375;-64
2022/04/20 04:59:01;;;;;;;5.85;4.47;;;6.10;99.90;;;;;;5071444;28;20044;-63
2022/04/20 05:01:27;;;;;;;6.43;4.50;;;6.10;99.90;;;;;;5069526;28;20049;-63
2022/04/20 05:03:55;;;;;;;6.75;4.13;;;6.00;99.90;;;;;;5053440;28;20144;-63
2022/04/20 05:06:21;;;;;;;8.45;4.50;;;6.00;99.90;;;;;;5070827;28;20106;-65
2022/04/20 05:08:47;;;;;;;7.50;4.25;;;6.10;99.90;;;;;;5070332;28;20052;-64
2022/04/20 05:11:13;;;;;;;9.10;4.65;;;6.10;99.90;;;;;;5070987;28;20055;-64
2022/04/20 05:13:39;;;;;;;6.35;4.43;;;6.10;99.90;;;;;;5070630;28;20080;-64
2022/04/20 05:16:05;;;;;;;6.75;4.40;;;6.10;99.90;;;;;;5071245;28;20077;-63
2022/04/20 05:18:31;;;;;;;7.00;4.30;;;6.10;99.90;;;;;;5070825;28;20090;-62
2022/04/20 05:20:56;;;;;;;6.72;4.40;;;6.20;99.90;;;;;;5053036;28;20044;-63
2022/04/20 05:23:22;;;;;;;6.78;4.40;;;6.20;99.90;;;;;;5070702;28;20044;-69
2022/04/20 05:25:48;;;;;;;6.93;3.92;;;6.30;99.90;;;;;;5070987;28;20051;-65
2022/04/20 05:28:14;;;;;;;6.20;4.38;;;6.40;99.90;;;;;;5069400;28;20074;-63
2022/04/20 05:30:40;;;;;;;5.85;3.72;;;6.90;99.90;;;;;;5070616;28;20063;-64
2022/04/20 05:33:06;;;;;;;6.82;3.65;;;7.60;99.90;;;;;;5070842;28;20040;-63
2022/04/20 05:35:32;;;;;;;6.40;3.88;;;8.40;99.90;;;;;;5070490;28;20098;-63
2022/04/20 05:43:26;;;;;;;6.35;3.92;;;10.80;99.90;;;;;;5069398;28;20394;-63
2022/04/20 05:45:52;;;;;;;4.75;3.38;;;11.40;99.90;;;;;;5070978;28;20044;-63
2022/04/20 05:48:18;;;;;;;6.55;3.70;;;11.70;99.90;;;;;;5070542;28;20486;-63
2022/04/20 05:50:44;;;;;;;7.93;3.80;;;12.20;99.90;;;;;;5070353;28;20108;-63
2022/04/20 05:53:10;;;;;;;5.82;3.60;;;12.90;99.90;;;;;;5070987;28;20502;-63
2022/04/20 05:55:36;;;;;;;5.75;3.75;;;13.40;99.90;;;;;;5070394;28;20167;-63
2022/04/20 05:58:02;;;;;;;5.00;3.17;;;13.90;99.90;;;;;;5069679;28;20508;-64
2022/04/20 06:00:28;;;;;;;5.30;3.33;;;14.40;99.20;;;;;;5070040;28;20482;-63
2022/04/20 06:02:55;;;;;;;4.65;3.17;;;14.90;99.80;;;;;;5069386;28;20043;-63
2022/04/20 06:05:21;;;;;;;5.20;3.38;;;15.10;96.60;;;;;;5070810;28;20052;-63
2022/04/20 06:07:48;;;;;;;5.68;3.13;;;15.40;93.80;;;;;;5068814;28;20048;-63
2022/04/20 06:10:14;;;;;;;7.22;3.35;;;15.50;94.00;;;;;;5069026;28;20520;-64
2022/04/20 06:12:40;;;;;;;6.68;3.25;;;16.00;95.30;;;;;;5069713;28;20036;-64
2022/04/20 06:15:07;;;;;;;5.90;3.25;;;16.20;91.10;;;;;;5052401;28;20057;-62
2022/04/20 06:17:32;;;;;;;5.00;3.00;;;16.80;92.80;;;;;;5068610;28;20117;-65
2022/04/20 06:19:58;;;;;;;6.75;3.58;;;17.00;90.80;;;;;;5069212;28;20487;-63
2022/04/20 06:22:25;;;;;;;5.53;3.42;;;16.90;91.30;;;;;;5070593;28;20076;-64
2022/04/20 06:24:50;;;;;;;5.63;3.35;;;16.90;90.70;;;;;;5068828;28;20036;-65
2022/04/20 06:27:16;;;;;;;5.88;3.35;;;17.00;88.00;;;;;;5070655;28;20047;-65
2022/04/20 06:29:42;;;;;;;5.30;3.20;;;17.10;89.40;;;;;;5068854;28;20051;-64
2022/04/20 06:32:08;;;;;;;5.13;3.28;;;17.10;90.50;;;;;;5052638;28;20124;-65
2022/04/20 06:34:34;;;;;;;5.38;3.75;;;16.90;90.10;;;;;;5070057;28;20044;-64
2022/04/20 06:37:00;;;;;;;5.15;3.38;;;17.00;90.10;;;;;;5070105;28;20048;-63
2022/04/20 06:39:26;;;;;;;5.20;3.13;;;17.30;87.90;;;;;;5071019;28;20460;-63
2022/04/20 06:41:52;;;;;;;7.57;3.47;;;17.50;88.50;;;;;;5055769;28;20129;-65
2022/04/20 06:44:18;;;;;;;5.57;3.80;;;17.50;89.80;;;;;;5072797;28;20132;-64
2022/04/20 06:46:45;;;;;;;6.00;3.38;;;17.80;88.50;;;;;;5073224;28;20099;-63
2022/04/20 06:49:11;;;;;;;5.25;3.30;;;18.00;85.70;;;;;;5073457;28;20144;-63
2022/04/20 06:59:53;;;;;;;6.47;3.70;;;19.40;82.50;;;;;;5073197;28;20052;-65
2022/04/20 07:02:21;;;;;;;5.93;3.60;;;19.20;79.80;;;;;;5055360;28;20045;-66
2022/04/20 07:04:46;;;;;;;4.38;3.30;;;19.50;76.40;;;;;;5073098;28;20059;-63
2022/04/20 07:07:12;;;;;;;8.90;3.70;;;19.30;79.20;;;;;;5073488;28;20044;-64
2022/04/20 07:09:38;;;;;;;5.60;3.38;;;19.30;78.90;;;;;;5072853;28;20048;-65
2022/04/20 07:12:04;;;;;;;4.97;3.42;;;19.40;79.00;;;;;;5073376;28;20045;-67
2022/04/20 07:14:30;;;;;;;5.85;3.35;;;19.20;78.60;;;;;;5073377;28;20099;-63
2022/04/20 07:16:56;;;;;;;5.18;3.35;;;19.10;78.30;;;;;;5072868;28;20098;-64
2022/04/20 07:19:22;;;;;;;5.05;3.20;;;19.20;78.50;;;;;;5072158;28;20048;-65
2022/04/20 07:21:47;;;;;;;9.43;3.90;;;19.60;76.50;;;;;;5072634;28;20154;-63
2022/04/20 07:24:13;;;;;;;5.40;3.47;;;20.00;77.50;;;;;;5071926;28;20557;-65
2022/04/20 07:26:39;;;;;;;5.47;3.13;;;20.30;76.50;;;;;;5072824;28;20044;-64
2022/04/20 07:29:05;;;;;;;6.57;3.40;;;20.50;73.40;;;;;;5071899;28;20482;-64
2022/04/20 07:31:30;;;;;;;5.30;3.20;;;20.50;72.50;;;;;;5072062;28;20044;-64
2022/04/20 07:33:56;;;;;;;5.95;3.10;;;20.50;74.10;;;;;;5071267;28;20041;-65
2022/04/20 07:36:22;;;;;;;6.15;2.90;;;20.80;73.30;;;;;;5071484;28;20055;-67
2022/04/20 07:38:49;;;;;;;4.47;3.22;;;21.30;72.30;;;;;;5070918;28;20102;-63
2022/04/20 07:41:15;;;;;;;5.70;3.20;;;21.70;71.90;;;;;;5072820;28;20044;-64
2022/04/20 07:43:41;;;;;;;4.07;3.00;;;21.90;68.80;;;;;;5072303;28;20048;-64
2022/04/20 07:46:07;;;;;;;5.60;3.05;;;22.20;69.60;;;;;;5072774;28;20044;-63
2022/04/20 07:48:33;;;;;;;4.05;2.80;;;22.30;67.20;;;;;;5072581;28;20398;-63
2022/04/20 07:51:00;;;;;;;3.63;2.60;;;22.30;66.60;;;;;;5071555;28;20112;-64
2022/04/20 07:53:27;;;;;;;4.72;2.78;;;22.30;65.30;;;;;;5071173;28;20040;-63
2022/04/20 07:55:52;;;;;;;3.85;2.67;;;22.20;63.80;;;;;;5071728;28;20394;-63
2022/04/20 07:58:18;;;;;;;4.82;3.05;;;22.10;63.20;;;;;;5054620;28;20046;-64
2022/04/20 08:00:45;;;;;;;4.93;2.60;;;22.20;64.30;;;;;;5070026;28;20131;-71
2022/04/20 08:03:14;;;;;;;4.13;2.70;;;22.40;61.40;;;;;;5071433;28;20048;-64
2022/04/20 08:05:41;;;;;;;3.92;2.50;;;22.60;62.30;;;;;;5070772;28;20132;-70
2022/04/20 08:08:08;;;;;;;5.28;2.33;;;22.80;60.10;;;;;;5071918;28;20070;-66
2022/04/20 08:10:34;;;;;;;3.10;2.10;;;22.80;58.60;;;;;;5072170;28;20052;-64
2022/04/20 08:13:00;;;;;;;3.38;2.10;;;23.10;60.00;;;;;;5071725;28;20105;-65
2022/04/20 08:15:25;;;;;;;3.63;2.28;;;23.40;58.60;;;;;;5071793;28;20411;-64
2022/04/20 08:17:51;;;;;;;3.30;2.25;;;23.20;56.20;;;;;;5071707;28;20056;-64
2022/04/20 08:20:17;;;;;;;2.33;1.85;;;23.00;55.30;;;;;;5037518;28;20534;-63
2022/04/20 08:22:44;;;;;;;4.65;2.15;;;22.90;55.30;;;;;;5070470;28;20043;-69
2022/04/20 08:25:12;;;;;;;5.88;2.08;;;22.80;55.50;;;;;;5037087;28;20083;-64
2022/04/20 08:27:38;;;;;;;3.58;2.08;;;23.00;54.60;;;;;;5071805;28;20124;-63
2022/04/20 08:30:05;;;;;;;5.05;2.13;;;22.90;54.90;;;;;;5070316;28;20193;-63
2022/04/20 08:32:31;;;;;;;5.10;2.10;;;22.80;56.00;;;;;;5070536;28;20049;-64
2022/04/20 08:34:57;;;;;;;3.70;2.03;;;22.80;54.30;;;;;;5070437;28;20048;-63
2022/04/20 08:37:23;;;;;;;3.17;2.15;;;22.50;53.30;;;;;;5071144;28;20044;-63
2022/04/20 08:39:49;;;;;;;3.75;1.90;;;22.40;55.00;;;;;;5070678;28;20056;-63
2022/04/20 08:42:19;;;;;;;3.65;2.00;;;22.50;54.60;;;;;;5036712;28;20052;-63
2022/04/20 08:44:49;;;;;;;2.85;1.90;;;22.40;53.40;;;;;;5070708;28;20510;-68
2022/04/20 08:47:21;;;;;;;2.60;1.65;;;22.50;52.20;;;;;;5070279;28;20443;-62
2022/04/20 08:49:51;;;;;;;3.33;2.10;;;22.50;51.90;;;;;;5070838;28;20149;-69
2022/04/20 08:55:13;;;;;;;2.80;1.73;;;22.90;53.30;;;;;;5069775;28;20150;-63
2022/04/20 08:57:40;;;;;;;3.70;1.90;;;22.70;52.70;;;;;;5071121;28;20052;-63
2022/04/20 09:00:12;;;;;;;3.85;1.90;;;22.60;51.20;;;;;;5069201;28;20622;-64
2022/04/20 09:02:38;;;;;;;4.43;2.10;;;22.60;51.50;;;;;;5070095;28;20067;-63
2022/04/20 09:05:05;;;;;;;3.13;1.80;;;22.80;52.20;;;;;;5069178;28;20055;-63
2022/04/20 09:07:31;;;;;;;2.80;1.85;;;22.80;51.30;;;;;;5070633;28;20402;-63
2022/04/20 09:09:57;;;;;;;3.25;1.92;;;22.60;51.90;;;;;;5070339;28;20040;-63
2022/04/20 09:12:23;;;;;;;2.92;1.90;;;22.30;52.20;;;;;;5071196;28;20045;-62
2022/04/20 09:14:51;;;;;;;2.38;1.75;;;22.20;51.60;;;;;;5070807;28;20044;-69
2022/04/20 09:17:19;;;;;;;3.10;1.77;;;22.10;52.30;;;;;;5069856;28;20128;-63
2022/04/20 09:19:46;;;;;;;2.47;1.80;;;22.10;52.80;;;;;;5069765;28;20127;-62
2022/04/20 09:22:17;;;;;;;3.20;1.77;;;22.30;52.00;;;;;;5070644;28;20077;-63
2022/04/20 09:24:57;;;;;;;2.97;1.70;;;22.00;50.40;;;;;;5071067;28;20417;-62
2022/04/20 09:27:27;;;;;;;3.25;1.50;;;21.60;50.80;;;;;;5070860;28;20553;-62
2022/04/20 09:29:58;;;;;;;3.58;1.88;;;21.30;51.50;;;;;;5070628;28;20045;-63
2022/04/20 09:32:35;;;;;;;2.97;1.80;;;21.30;52.60;;;;;;5071043;28;20128;-64
2022/04/20 09:35:05;;;;;;;2.58;1.73;;;21.20;52.30;;;;;;5070204;28;20044;-63
2022/04/20 09:37:32;;;;;;;4.93;1.80;;;20.70;52.90;;;;;;5070454;28;20452;-64
2022/04/20 09:40:00;;;;;;;3.20;1.95;;;20.10;53.00;;;;;;5070071;28;20506;-63
2022/04/20 09:42:26;;;;;;;3.33;1.95;;;19.50;52.70;;;;;;5052390;28;20045;-61
2022/04/20 09:44:57;;;;;;;3.38;2.00;;;19.20;53.50;;;;;;5052683;28;20044;-62
2022/04/20 09:50:22;;;;;;;3.40;1.90;;;18.80;54.00;;;;;;5069907;28;20095;-63
2022/04/20 09:52:49;;;;;;;3.97;1.70;;;18.60;54.30;;;;;;5070197;28;20044;-62
2022/04/20 09:55:29;;;;;;;3.05;1.88;;;18.30;54.30;;;;;;5069849;28;20595;-62
2022/04/20 09:58:13;;;;;;;2.33;1.70;;;18.10;54.60;;;;;;5070632;28;20084;-67
2022/04/20 10:00:40;;;;;;;2.15;1.63;;;18.00;54.20;;;;;;5070816;28;20052;-62
2022/04/20 10:03:06;;;;;;;3.45;1.90;;;17.70;54.20;;;;;;5068891;28;20101;-62
2022/04/20 10:05:33;;;;;;;3.28;1.80;;;17.50;54.90;;;;;;5070763;28;20616;-63
2022/04/20 10:07:59;;;;;;;2.95;2.00;;;17.40;56.00;;;;;;5070139;28;20045;-63
2022/04/20 10:10:34;;;;;;;3.88;1.95;;;17.40;55.50;;;;;;5069023;28;20552;-63
2022/04/20 10:13:04;;;;;;;3.13;1.90;;;17.30;56.50;;;;;;5069118;28;20044;-62
2022/04/20 10:18:21;;;;;;;4.05;1.85;;;17.20;56.20;;;;;;5073745;28;20140;-64
2022/04/20 10:20:54;;;;;;;3.05;1.70;;;17.30;55.90;;;;;;5074429;28;20516;-62
2022/04/20 10:23:22;;;;;;;2.78;1.55;;;17.30;56.10;;;;;;5072766;28;20083;-64
2022/04/20 10:25:53;;;;;;;2.40;1.60;;;17.20;55.40;;;;;;5072153;28;20048;-63
2022/04/20 10:28:45;;;;;;;3.80;2.10;;;17.20;55.70;;;;;;5071881;28;20279;-62
2022/04/20 10:31:18;;;;;;;2.63;1.45;;;17.20;56.00;;;;;;5072325;28;20056;-63
2022/04/20 10:33:45;;;;;;;1.98;1.60;;;17.20;55.30;;;;;;5074056;28;20181;-62
2022/04/20 10:36:18;;;;;;;2.35;1.60;;;17.20;55.20;;;;;;5073396;28;20067;-64
2022/04/20 10:38:48;;;;;;;2.50;1.50;;;17.30;55.40;;;;;;5055886;28;20063;-62
2022/04/20 10:41:19;;;;;;;2.53;1.50;;;17.30;54.50;;;;;;5072388;28;20056;-63
2022/04/20 10:43:46;;;;;;;3.50;1.63;;;17.20;54.10;;;;;;5073710;28;20105;-64
2022/04/20 10:46:17;;;;;;;4.00;1.75;;;17.10;55.10;;;;;;5072955;28;20052;-64
2022/04/20 10:48:48;;;;;;;2.78;1.35;;;17.00;55.30;;;;;;5073916;28;20050;-64
2022/04/20 10:51:16;;;;;;;1.95;1.50;;;17.00;55.20;;;;;;5073403;28;20063;-65
2022/04/20 10:53:43;;;;;;;3.50;1.90;;;17.00;55.50;;;;;;5073801;28;20047;-63
2022/04/20 10:56:09;;;;;;;2.63;1.50;;;17.00;55.80;;;;;;5072157;28;20076;-63
2022/04/20 10:58:35;;;;;;;2.05;1.40;;;17.00;56.20;;;;;;5073605;28;20040;-63
2022/04/20 11:01:11;;;;;;;2.42;1.40;;;17.00;57.00;;;;;;5039104;28;20238;-67
2022/04/20 11:04:06;;;;;;;3.22;1.77;;;17.10;56.90;;;;;;5054541;28;20544;-63
2022/04/20 11:07:01;;;;;;;4.20;1.65;;;17.10;57.80;;;;;;5042439;28;20103;-64
2022/04/20 11:09:43;;;;;;;2.28;1.40;;;17.20;57.10;;;;;;5073004;28;20048;-64
2022/04/20 11:21:06;;;;;;;2.00;1.38;;;17.30;57.50;;;;;;5073192;28;20360;-64
2022/04/20 11:23:59;;;;;;;3.40;1.50;;;17.20;57.20;;;;;;5073011;28;20417;-64
2022/04/20 11:26:48;;;;;;;2.40;1.40;;;17.20;57.80;;;;;;5071052;28;20067;-64
2022/04/20 11:29:15;;;;;;;2.65;1.30;;;17.10;57.20;;;;;;5072824;28;20053;-64
2022/04/20 11:31:45;;;;;;;7.70;1.48;;;17.10;57.50;;;;;;5073115;28;20059;-65
2022/04/20 11:34:14;;;;;;;1.35;1.02;;;17.10;57.70;;;;;;5072833;28;20048;-63
2022/04/20 11:36:42;;;;;;;3.10;1.30;;;17.10;57.60;;;;;;5054731;28;20483;-64
2022/04/20 11:39:12;;;;;;;2.17;1.50;;;17.10;58.00;;;;;;5070903;28;20053;-68
2022/04/20 11:41:43;;;;;;;1.23;1.05;;;17.10;58.80;;;;;;5071313;28;20060;-64
2022/04/20 11:44:22;;;;;;;2.15;1.23;;;17.10;58.10;;;;;;5070656;28;20462;-67
2022/04/20 11:46:49;;;;;;;1.80;1.23;;;17.10;58.10;;;;;;5071620;28;20045;-62
2022/04/20 11:49:15;;;;;;;2.20;1.30;;;17.10;58.10;;;;;;5071667;28;20203;-63
2022/04/20 11:51:46;;;;;;;1.65;1.27;;;17.10;58.30;;;;;;5071307;28;20393;-63
2022/04/20 11:54:22;;;;;;;3.47;1.17;;;17.10;58.10;;;;;;5071450;28;20518;-63
2022/04/20 11:56:48;;;;;;;2.60;1.40;;;17.10;58.30;;;;;;5072602;28;20436;-62
2022/04/20 11:59:17;;;;;;;3.75;1.50;;;17.10;58.60;;;;;;5071949;28;20102;-63
2022/04/20 12:01:44;;;;;;;1.83;1.20;;;17.10;59.10;;;;;;5072006;28;20071;-63
2022/04/20 12:04:18;;;;;;;3.20;1.45;;;17.10;58.80;;;;;;5071074;28;20040;-67
2022/04/20 12:06:56;;;;;;;2.90;1.38;;;17.10;58.30;;;;;;5072212;28;20106;-63
2022/04/20 12:09:28;;;;;;;3.42;1.30;;;17.10;58.70;;;;;;5070845;28;20139;-63
2022/04/20 12:11:58;;;;;;;2.90;1.20;;;17.00;58.70;;;;;;5071136;28;20158;-64
2022/04/20 12:14:30;;;;;;;3.08;1.30;;;16.90;59.20;;;;;;5054108;28;20143;-63
2022/04/20 12:17:00;;;;;;;1.77;1.25;;;16.90;59.60;;;;;;5072153;28;20036;-65
2022/04/20 12:19:27;;;;;;;2.80;1.60;;;16.80;59.90;;;;;;5070513;28;20133;-62
2022/04/20 12:21:53;;;;;;;2.00;1.35;;;16.90;59.80;;;;;;5071766;28;20073;-63
2022/04/20 12:24:24;;;;;;;2.15;1.38;;;16.90;60.20;;;;;;5070515;28;20063;-62
2022/04/20 12:26:51;;;;;;;2.15;1.40;;;16.90;60.10;;;;;;5071985;28;20110;-63
2022/04/20 12:29:20;;;;;;;3.67;1.70;;;16.90;60.50;;;;;;5071693;28;20390;-64
2022/04/20 12:31:49;;;;;;;2.53;1.45;;;16.90;60.60;;;;;;5071798;28;20084;-64
2022/04/20 12:34:16;;;;;;;3.30;1.50;;;17.00;60.90;;;;;;5070179;28;20052;-68
2022/04/20 12:37:07;;;;;;;2.58;1.67;;;17.00;60.60;;;;;;5070203;28;20059;-65
2022/04/20 12:39:42;;;;;;;1.63;1.33;;;17.00;61.00;;;;;;5071221;28;20661;-63
2022/04/20 12:42:12;;;;;;;2.67;1.50;;;17.10;61.20;;;;;;5036998;28;20041;-63
2022/04/20 12:44:51;;;;;;;3.28;1.75;;;17.20;61.50;;;;;;5070654;28;20119;-64
2022/04/20 12:47:17;;;;;;;2.25;1.42;;;17.20;61.50;;;;;;5070591;28;20444;-67
2022/04/20 12:49:53;;;;;;;2.63;1.48;;;17.20;61.40;;;;;;5071239;28;20044;-64
2022/04/20 12:52:27;;;;;;;4.40;1.90;;;17.20;61.40;;;;;;5069711;28;20097;-64
2022/04/20 12:54:55;;;;;;;2.20;1.60;;;17.20;61.70;;;;;;5053349;28;20123;-63
2022/04/20 13:03:02;;;;;;;2.90;1.73;;;17.00;61.70;;;;;;5071081;28;20409;-65
2022/04/20 13:05:32;;;;;;;4.40;1.70;;;17.00;62.00;;;;;;5069785;28;20394;-64
2022/04/20 13:07:59;;;;;;;9.52;2.85;;;17.00;62.20;;;;;;5071293;28;20084;-63
2022/04/20 13:10:25;;;;;;;5.90;2.95;;;17.00;64.40;;;;;;5069421;28;20053;-63
2022/04/20 13:12:53;;;;;;;5.15;2.83;;;17.10;67.50;;;;;;5071122;28;20049;-63
2022/04/20 13:15:19;;;;;;;4.25;2.80;;;17.10;67.20;;;;;;5070874;28;20037;-67
2022/04/20 13:17:45;;;;;;;4.68;2.95;;;17.00;68.80;;;;;;5069733;28;20128;-63
2022/04/20 13:20:12;;;;;;;5.95;3.53;;;17.00;71.20;;;;;;5071229;28;20045;-63
2022/04/20 13:22:37;;;;;;;6.60;3.67;;;17.00;71.20;;;;;;5070518;28;20616;-63
2022/04/20 13:27:54;;;;;;;6.60;3.80;;;17.10;72.30;;;;;;5069998;28;20398;-65
2022/04/20 13:30:27;;;;;;;5.07;3.50;;;17.30;72.60;;;;;;5069539;28;20382;-67
2022/04/20 13:32:55;;;;;;;7.45;3.67;;;17.10;72.00;;;;;;5071057;28;20083;-64
2022/04/20 13:35:21;;;;;;;4.75;2.95;;;17.00;72.80;;;;;;5070666;28;20084;-68
2022/04/20 13:37:47;;;;;;;6.28;3.63;;;17.00;72.40;;;;;;5070320;28;20045;-63